sensor_id;sensor_type;location;lat;lon;timestamp;temperature;humidity
11934;DHT22;6026;48.784;9.198;2023-02-28T00:00:32;-1.50;99.90
11934;DHT22;6026;48.784;9.198;2023-02-28T00:02:58;-1.60;99.90
11934;DHT22;6026;48.784;9.198;2023-02-28T00:05:26;-1.50;99.90
11934;DHT22;6026;48.784;9.198;2023-02-28T00:07:51;-1.60;99.90
11934;DHT22;6026;48.784;9.198;2023-02-28T00:10:24;-1.60;99.90
11934;DHT22;6026;48.784;9.198;2023-02-28T00:12:51;-1.60;99.90
11934;DHT22;6026;48.784;9.198;2023-02-28T00:15:17;-1.60;99.90
11934;DHT22;6026;48.784;9.198;2023-02-28T00:17:43;-1.70;99.90
11934;DHT22;6026;48.784;9.198;2023-02-28T00:20:10;-1.70;99.90
11934;DHT22;6026;48.784;9.198;2023-02-28T00:22:41;-1.80;99.90
11934;DHT22;6026;48.784;9.198;2023-02-28T00:25:10;-1.80;99.90
11934;DHT22;6026;48.784;9.198;2023-02-28T00:27:37;-1.80;99.90
11934;DHT22;6026;48.784;9.198;2023-02-28T00:30:04;-1.80;99.90
11934;DHT22;6026;48.784;9.198;2023-02-28T00:32:30;-1.80;99.90
11934;DHT22;6026;48.784;9.198;2023-02-28T00:34:56;-1.80;99.90
11934;DHT22;6026;48.784;9.198;2023-02-28T00:37:22;-1.90;99.90
11934;DHT22;6026;48.784;9.198;2023-02-28T00:39:47;-1.90;99.90
11934;DHT22;6026;48.784;9.198;2023-02-28T00:42:13;-2.00;99.90
11934;DHT22;6026;48.784;9.198;2023-02-28T00:44:39;-1.90;99.90
11934;DHT22;6026;48.784;9.198;2023-02-28T00:47:04;-1.90;99.90
11934;DHT22;6026;48.784;9.198;2023-02-28T00:49:30;-1.90;99.90
11934;DHT22;6026;48.784;9.198;2023-02-28T00:51:56;-1.90;99.90
11934;DHT22;6026;48.784;9.198;2023-02-28T00:54:23;-2.00;99.90
11934;DHT22;6026;48.784;9.198;2023-02-28T00:56:48;-2.00;99.90
11934;DHT22;6026;48.784;9.198;2023-02-28T00:59:15;-2.00;99.90
11934;DHT22;6026;48.784;9.198;2023-02-28T01:01:42;-2.00;99.90
11934;DHT22;6026;48.784;9.198;2023-02-28T01:04:08;-2.00;99.90
11934;DHT22;6026;48.784;9.198;2023-02-28T01:06:34;-2.00;99.90
11934;DHT22;6026;48.784;9.198;2023-02-28T01:08:59;-2.10;99.90
11934;DHT22;6026;48.784;9.198;2023-02-28T01:11:25;-2.10;99.90
11934;DHT22;6026;48.784;9.198;2023-02-28T01:13:51;-2.10;99.90
11934;DHT22;6026;48.784;9.198;2023-02-28T01:16:17;-2.00;99.90
11934;DHT22;6026;48.784;9.198;2023-02-28T01:18:43;-2.00;99.90
11934;DHT22;6026;48.784;9.198;2023-02-28T01:21:11;-2.00;99.90
11934;DHT22;6026;48.784;9.198;2023-02-28T01:23:38;-2.10;99.90
11934;DHT22;6026;48.784;9.198;2023-02-28T01:26:09;-2.10;99.90
11934;DHT22;6026;48.784;9.198;2023-02-28T01:28:34;-2.10;99.90
11934;DHT22;6026;48.784;9.198;2023-02-28T01:31:00;-2.10;99.90
11934;DHT22;6026;48.784;9.198;2023-02-28T01:33:26;-2.10;99.90
11934;DHT22;6026;48.784;9.198;2023-02-28T01:36:07;-2.10;99.90
11934;DHT22;6026;48.784;9.198;2023-02-28T01:38:34;-2.20;99.90
11934;DHT22;6026;48.784;9.198;2023-02-28T01:40:59;-2.20;99.90
11934;DHT22;6026;48.784;9.198;2023-02-28T01:43:27;-2.20;99.90
11934;DHT22;6026;48.784;9.198;2023-02-28T01:45:54;-2.20;99.90
11934;DHT22;6026;48.784;9.198;2023-02-28T01:48:31;-2.20;99.90
11934;DHT22;6026;48.784;9.198;2023-02-28T01:51:01;-2.30;99.90
11934;DHT22;6026;48.784;9.198;2023-02-28T01:53:37;-2.20;99.90
11934;DHT22;6026;48.784;9.198;2023-02-28T01:56:06;-2.20;99.90
11934;DHT22;6026;48.784;9.198;2023-02-28T01:58:33;-2.20;99.90
11934;DHT22;6026;48.784;9.198;2023-02-28T02:00:59;-2.20;99.90
11934;DHT22;6026;48.784;9.198;2023-02-28T02:03:25;-2.20;99.90
11934;DHT22;6026;48.784;9.198;2023-02-28T02:05:51;-2.20;99.90
11934;DHT22;6026;48.784;9.198;2023-02-28T02:08:23;-2.20;99.90
11934;DHT22;6026;48.784;9.198;2023-02-28T02:10:51;-2.20;99.90
11934;DHT22;6026;48.784;9.198;2023-02-28T02:34:27;-2.10;99.90
11934;DHT22;6026;48.784;9.198;2023-02-28T02:41:56;-2.10;99.90
11934;DHT22;6026;48.784;9.198;2023-02-28T02:44:31;-2.00;99.90
11934;DHT22;6026;48.784;9.198;2023-02-28T02:47:12;-2.10;99.90
11934;DHT22;6026;48.784;9.198;2023-02-28T02:49:41;-2.10;99.90
11934;DHT22;6026;48.784;9.198;2023-02-28T02:52:11;-2.00;99.90
11934;DHT22;6026;48.784;9.198;2023-02-28T02:54:41;-2.00;99.90
11934;DHT22;6026;48.784;9.198;2023-02-28T02:57:13;-2.00;99.90
11934;DHT22;6026;48.784;9.198;2023-02-28T02:59:41;-2.00;99.90
11934;DHT22;6026;48.784;9.198;2023-02-28T03:02:12;-1.90;99.90
11934;DHT22;6026;48.784;9.198;2023-02-28T03:04:46;-1.90;99.90
11934;DHT22;6026;48.784;9.198;2023-02-28T03:07:14;-1.90;99.90
11934;DHT22;6026;48.784;9.198;2023-02-28T03:09:39;-1.90;99.90
11934;DHT22;6026;48.784;9.198;2023-02-28T03:12:09;-1.90;99.90
11934;DHT22;6026;48.784;9.198;2023-02-28T03:14:49;-1.90;99.90
11934;DHT22;6026;48.784;9.198;2023-02-28T03:17:36;-1.90;99.90
11934;DHT22;6026;48.784;9.198;2023-02-28T03:30:42;-1.80;99.90
11934;DHT22;6026;48.784;9.198;2023-02-28T03:33:16;-1.80;99.90
11934;DHT22;6026;48.784;9.198;2023-02-28T03:35:48;-1.80;99.90
11934;DHT22;6026;48.784;9.198;2023-02-28T03:38:21;-1.80;99.90
11934;DHT22;6026;48.784;9.198;2023-02-28T03:40:51;-1.80;99.90
11934;DHT22;6026;48.784;9.198;2023-02-28T03:43:26;-1.80;99.90
11934;DHT22;6026;48.784;9.198;2023-02-28T03:45:53;-1.80;99.90
11934;DHT22;6026;48.784;9.198;2023-02-28T03:48:43;-1.80;99.90
11934;DHT22;6026;48.784;9.198;2023-02-28T03:51:15;-1.80;99.90
11934;DHT22;6026;48.784;9.198;2023-02-28T03:53:54;-1.70;99.90
11934;DHT22;6026;48.784;9.198;2023-02-28T03:59:34;-1.70;99.90
11934;DHT22;6026;48.784;9.198;2023-02-28T04:02:03;-1.70;99.90
11934;DHT22;6026;48.784;9.198;2023-02-28T04:04:28;-1.70;99.90
11934;DHT22;6026;48.784;9.198;2023-02-28T04:07:05;-1.60;99.90
11934;DHT22;6026;48.784;9.198;2023-02-28T04:09:31;-1.60;99.90
11934;DHT22;6026;48.784;9.198;2023-02-28T04:11:57;-1.60;99.90
11934;DHT22;6026;48.784;9.198;2023-02-28T04:14:23;-1.60;99.90
11934;DHT22;6026;48.784;9.198;2023-02-28T04:16:49;-1.60;99.90
11934;DHT22;6026;48.784;9.198;2023-02-28T04:19:16;-1.60;99.90
11934;DHT22;6026;48.784;9.198;2023-02-28T04:21:44;-1.60;99.90
11934;DHT22;6026;48.784;9.198;2023-02-28T04:24:13;-1.60;99.90
11934;DHT22;6026;48.784;9.198;2023-02-28T04:26:41;-1.60;99.90
11934;DHT22;6026;48.784;9.198;2023-02-28T04:29:08;-1.50;99.90
11934;DHT22;6026;48.784;9.198;2023-02-28T04:31:34;-1.50;99.90
11934;DHT22;6026;48.784;9.198;2023-02-28T04:34:00;-1.50;99.90
11934;DHT22;6026;48.784;9.198;2023-02-28T04:36:26;-1.50;99.90
11934;DHT22;6026;48.784;9.198;2023-02-28T04:38:52;-1.50;99.90
11934;DHT22;6026;48.784;9.198;2023-02-28T04:41:18;-1.40;99.90
11934;DHT22;6026;48.784;9.198;2023-02-28T04:43:43;-1.50;99.90
11934;DHT22;6026;48.784;9.198;2023-02-28T04:46:09;-1.50;99.90
11934;DHT22;6026;48.784;9.198;2023-02-28T04:48:38;-1.50;99.90
11934;DHT22;6026;48.784;9.198;2023-02-28T04:51:09;-1.50;99.90
11934;DHT22;6026;48.784;9.198;2023-02-28T04:53:37;-1.50;99.90
11934;DHT22;6026;48.784;9.198;2023-02-28T04:56:04;-1.50;99.90
11934;DHT22;6026;48.784;9.198;2023-02-28T04:58:30;-1.50;99.90
11934;DHT22;6026;48.784;9.198;2023-02-28T05:01:02;-1.50;99.90
11934;DHT22;6026;48.784;9.198;2023-02-28T05:03:28;-1.40;99.90
11934;DHT22;6026;48.784;9.198;2023-02-28T05:05:53;-1.40;99.90
11934;DHT22;6026;48.784;9.198;2023-02-28T05:08:19;-1.40;99.90
11934;DHT22;6026;48.784;9.198;2023-02-28T05:10:44;-1.40;99.90
11934;DHT22;6026;48.784;9.198;2023-02-28T05:13:13;-1.40;99.90
11934;DHT22;6026;48.784;9.198;2023-02-28T05:15:39;-1.40;99.90
11934;DHT22;6026;48.784;9.198;2023-02-28T05:18:04;-1.40;99.90
11934;DHT22;6026;48.784;9.198;2023-02-28T05:20:30;-1.40;99.90
11934;DHT22;6026;48.784;9.198;2023-02-28T05:22:57;-1.40;99.90
11934;DHT22;6026;48.784;9.198;2023-02-28T05:25:24;-1.40;99.90
11934;DHT22;6026;48.784;9.198;2023-02-28T05:27:49;-1.40;99.90
11934;DHT22;6026;48.784;9.198;2023-02-28T05:30:16;-1.30;99.90
11934;DHT22;6026;48.784;9.198;2023-02-28T05:32:42;-1.30;99.90
11934;DHT22;6026;48.784;9.198;2023-02-28T05:35:11;-1.30;99.90
11934;DHT22;6026;48.784;9.198;2023-02-28T05:37:37;-1.30;99.90
11934;DHT22;6026;48.784;9.198;2023-02-28T05:40:04;-1.30;99.90
11934;DHT22;6026;48.784;9.198;2023-02-28T05:42:37;-1.30;99.90
11934;DHT22;6026;48.784;9.198;2023-02-28T05:45:04;-1.30;99.90
11934;DHT22;6026;48.784;9.198;2023-02-28T05:47:30;-1.30;99.90
11934;DHT22;6026;48.784;9.198;2023-02-28T05:49:56;-1.30;99.90
11934;DHT22;6026;48.784;9.198;2023-02-28T05:52:21;-1.30;99.90
11934;DHT22;6026;48.784;9.198;2023-02-28T05:54:47;-1.30;99.90
11934;DHT22;6026;48.784;9.198;2023-02-28T05:57:13;-1.30;99.90
11934;DHT22;6026;48.784;9.198;2023-02-28T05:59:38;-1.30;99.90
11934;DHT22;6026;48.784;9.198;2023-02-28T06:02:06;-1.30;99.90
11934;DHT22;6026;48.784;9.198;2023-02-28T06:04:35;-1.30;99.90
11934;DHT22;6026;48.784;9.198;2023-02-28T06:07:01;-1.30;99.90
11934;DHT22;6026;48.784;9.198;2023-02-28T06:09:27;-1.30;99.90
11934;DHT22;6026;48.784;9.198;2023-02-28T06:11:52;-1.20;99.90
11934;DHT22;6026;48.784;9.198;2023-02-28T06:14:19;-1.30;99.90
11934;DHT22;6026;48.784;9.198;2023-02-28T06:16:45;-1.30;99.90
11934;DHT22;6026;48.784;9.198;2023-02-28T06:19:11;-1.20;99.90
11934;DHT22;6026;48.784;9.198;2023-02-28T06:21:38;-1.20;99.90
11934;DHT22;6026;48.784;9.198;2023-02-28T06:24:04;-1.30;99.90
11934;DHT22;6026;48.784;9.198;2023-02-28T06:26:30;-1.20;99.90
11934;DHT22;6026;48.784;9.198;2023-02-28T06:28:56;-1.30;99.90
11934;DHT22;6026;48.784;9.198;2023-02-28T06:31:22;-1.30;99.90
11934;DHT22;6026;48.784;9.198;2023-02-28T06:33:47;-1.30;99.90
11934;DHT22;6026;48.784;9.198;2023-02-28T06:36:15;-1.20;99.90
11934;DHT22;6026;48.784;9.198;2023-02-28T06:38:41;-1.20;99.90
11934;DHT22;6026;48.784;9.198;2023-02-28T06:41:07;-1.20;99.90
11934;DHT22;6026;48.784;9.198;2023-02-28T06:43:36;-1.20;99.90
11934;DHT22;6026;48.784;9.198;2023-02-28T06:46:05;-1.20;99.90
11934;DHT22;6026;48.784;9.198;2023-02-28T06:48:31;-1.20;99.90
11934;DHT22;6026;48.784;9.198;2023-02-28T06:51:04;-1.20;99.90
11934;DHT22;6026;48.784;9.198;2023-02-28T06:53:31;-1.10;99.90
11934;DHT22;6026;48.784;9.198;2023-02-28T06:55:56;-1.10;99.90
11934;DHT22;6026;48.784;9.198;2023-02-28T06:58:22;-1.10;99.90
11934;DHT22;6026;48.784;9.198;2023-02-28T07:00:51;-1.10;99.90
11934;DHT22;6026;48.784;9.198;2023-02-28T07:03:17;-1.00;99.90
11934;DHT22;6026;48.784;9.198;2023-02-28T07:05:44;-1.00;99.90
11934;DHT22;6026;48.784;9.198;2023-02-28T07:08:09;-1.00;99.90
11934;DHT22;6026;48.784;9.198;2023-02-28T07:10:37;-1.00;99.90
11934;DHT22;6026;48.784;9.198;2023-02-28T07:13:04;-1.00;99.90
11934;DHT22;6026;48.784;9.198;2023-02-28T07:15:30;-1.00;99.90
11934;DHT22;6026;48.784;9.198;2023-02-28T07:17:56;-0.90;99.90
11934;DHT22;6026;48.784;9.198;2023-02-28T07:20:24;-0.90;99.90
11934;DHT22;6026;48.784;9.198;2023-02-28T07:22:51;-0.90;99.90
11934;DHT22;6026;48.784;9.198;2023-02-28T07:25:23;-0.80;99.90
11934;DHT22;6026;48.784;9.198;2023-02-28T07:27:49;-0.80;99.90
11934;DHT22;6026;48.784;9.198;2023-02-28T07:30:14;-0.80;99.90
11934;DHT22;6026;48.784;9.198;2023-02-28T07:32:40;-0.80;99.90
11934;DHT22;6026;48.784;9.198;2023-02-28T07:35:06;-0.80;99.90
11934;DHT22;6026;48.784;9.198;2023-02-28T07:37:32;-0.80;99.90
11934;DHT22;6026;48.784;9.198;2023-02-28T07:40:03;-0.70;99.90
11934;DHT22;6026;48.784;9.198;2023-02-28T07:42:31;-0.70;99.90
11934;DHT22;6026;48.784;9.198;2023-02-28T07:44:57;-0.60;99.90
11934;DHT22;6026;48.784;9.198;2023-02-28T07:47:24;-0.60;99.90
11934;DHT22;6026;48.784;9.198;2023-02-28T07:49:49;-0.60;99.90
11934;DHT22;6026;48.784;9.198;2023-02-28T07:52:15;-0.60;99.90
11934;DHT22;6026;48.784;9.198;2023-02-28T07:54:41;-0.50;99.90
11934;DHT22;6026;48.784;9.198;2023-02-28T07:57:06;-0.50;99.90
11934;DHT22;6026;48.784;9.198;2023-02-28T07:59:32;-0.50;99.90
11934;DHT22;6026;48.784;9.198;2023-02-28T08:01:58;-0.40;99.90
11934;DHT22;6026;48.784;9.198;2023-02-28T08:04:24;-0.40;99.90
11934;DHT22;6026;48.784;9.198;2023-02-28T08:06:50;-0.40;99.90
11934;DHT22;6026;48.784;9.198;2023-02-28T08:09:17;-0.30;99.90
11934;DHT22;6026;48.784;9.198;2023-02-28T08:11:42;-0.30;99.90
11934;DHT22;6026;48.784;9.198;2023-02-28T08:14:08;-0.30;99.90
11934;DHT22;6026;48.784;9.198;2023-02-28T08:16:34;-0.20;99.90
11934;DHT22;6026;48.784;9.198;2023-02-28T08:18:59;-0.20;99.90
11934;DHT22;6026;48.784;9.198;2023-02-28T08:21:25;-0.20;99.90
11934;DHT22;6026;48.784;9.198;2023-02-28T08:23:51;-0.10;99.90
11934;DHT22;6026;48.784;9.198;2023-02-28T08:26:17;-0.10;99.90
11934;DHT22;6026;48.784;9.198;2023-02-28T08:28:43;0.00;99.90
11934;DHT22;6026;48.784;9.198;2023-02-28T08:31:11;0.00;99.90
11934;DHT22;6026;48.784;9.198;2023-02-28T08:33:37;0.00;99.90
11934;DHT22;6026;48.784;9.198;2023-02-28T08:36:04;0.00;99.90
11934;DHT22;6026;48.784;9.198;2023-02-28T08:38:30;0.10;99.90
11934;DHT22;6026;48.784;9.198;2023-02-28T08:41:01;0.10;99.90
11934;DHT22;6026;48.784;9.198;2023-02-28T08:43:28;0.10;99.90
11934;DHT22;6026;48.784;9.198;2023-02-28T08:45:54;0.20;99.90
11934;DHT22;6026;48.784;9.198;2023-02-28T08:48:22;0.20;99.90
11934;DHT22;6026;48.784;9.198;2023-02-28T08:51:02;0.20;99.90
11934;DHT22;6026;48.784;9.198;2023-02-28T08:53:28;0.20;99.90
11934;DHT22;6026;48.784;9.198;2023-02-28T08:55:58;0.20;99.90
11934;DHT22;6026;48.784;9.198;2023-02-28T08:58:25;0.20;99.90
11934;DHT22;6026;48.784;9.198;2023-02-28T09:00:51;0.30;99.90
11934;DHT22;6026;48.784;9.198;2023-02-28T09:03:16;0.40;99.90
11934;DHT22;6026;48.784;9.198;2023-02-28T09:05:54;0.40;99.90
11934;DHT22;6026;48.784;9.198;2023-02-28T09:08:21;0.30;99.90
11934;DHT22;6026;48.784;9.198;2023-02-28T09:10:47;0.50;99.90
11934;DHT22;6026;48.784;9.198;2023-02-28T09:13:12;0.50;99.90
11934;DHT22;6026;48.784;9.198;2023-02-28T09:15:38;0.50;99.90
11934;DHT22;6026;48.784;9.198;2023-02-28T09:18:04;0.40;99.90
11934;DHT22;6026;48.784;9.198;2023-02-28T09:20:29;0.60;99.90
11934;DHT22;6026;48.784;9.198;2023-02-28T09:22:55;0.70;99.90
11934;DHT22;6026;48.784;9.198;2023-02-28T09:25:21;0.60;99.90
11934;DHT22;6026;48.784;9.198;2023-02-28T09:27:46;0.70;99.90
11934;DHT22;6026;48.784;9.198;2023-02-28T09:30:12;0.70;99.90
11934;DHT22;6026;48.784;9.198;2023-02-28T09:32:38;0.70;99.90
11934;DHT22;6026;48.784;9.198;2023-02-28T09:35:04;0.90;99.90
11934;DHT22;6026;48.784;9.198;2023-02-28T09:37:30;0.90;99.90
11934;DHT22;6026;48.784;9.198;2023-02-28T09:39:56;0.90;99.90
11934;DHT22;6026;48.784;9.198;2023-02-28T09:42:28;0.90;99.90
11934;DHT22;6026;48.784;9.198;2023-02-28T09:44:56;0.80;99.90
11934;DHT22;6026;48.784;9.198;2023-02-28T09:47:35;0.90;99.90
11934;DHT22;6026;48.784;9.198;2023-02-28T09:52:48;1.00;99.90
11934;DHT22;6026;48.784;9.198;2023-02-28T09:55:30;1.10;99.90
11934;DHT22;6026;48.784;9.198;2023-02-28T09:57:59;1.10;99.90
11934;DHT22;6026;48.784;9.198;2023-02-28T10:00:39;1.10;99.90
11934;DHT22;6026;48.784;9.198;2023-02-28T10:03:27;1.10;99.90
11934;DHT22;6026;48.784;9.198;2023-02-28T10:06:08;1.20;99.90
11934;DHT22;6026;48.784;9.198;2023-02-28T10:08:40;1.30;99.90
11934;DHT22;6026;48.784;9.198;2023-02-28T10:11:12;1.40;99.90
11934;DHT22;6026;48.784;9.198;2023-02-28T10:13:53;1.50;99.90
11934;DHT22;6026;48.784;9.198;2023-02-28T10:16:31;1.50;99.90
11934;DHT22;6026;48.784;9.198;2023-02-28T10:22:17;1.60;99.90
11934;DHT22;6026;48.784;9.198;2023-02-28T10:24:47;1.70;99.90
11934;DHT22;6026;48.784;9.198;2023-02-28T10:27:19;1.60;99.90
11934;DHT22;6026;48.784;9.198;2023-02-28T10:29:48;1.70;99.90
11934;DHT22;6026;48.784;9.198;2023-02-28T10:32:17;1.80;99.90
11934;DHT22;6026;48.784;9.198;2023-02-28T10:34:43;1.70;99.90
11934;DHT22;6026;48.784;9.198;2023-02-28T10:37:11;1.80;99.90
11934;DHT22;6026;48.784;9.198;2023-02-28T10:39:44;2.00;99.90
11934;DHT22;6026;48.784;9.198;2023-02-28T10:42:24;1.90;99.90
11934;DHT22;6026;48.784;9.198;2023-02-28T10:45:16;1.90;99.90
11934;DHT22;6026;48.784;9.198;2023-02-28T10:47:58;2.10;99.90
11934;DHT22;6026;48.784;9.198;2023-02-28T10:55:40;2.40;99.90
11934;DHT22;6026;48.784;9.198;2023-02-28T10:58:21;2.50;99.90
11934;DHT22;6026;48.784;9.198;2023-02-28T11:00:47;2.60;99.90
11934;DHT22;6026;48.784;9.198;2023-02-28T11:03:34;2.60;99.90
11934;DHT22;6026;48.784;9.198;2023-02-28T11:06:30;3.40;99.90
11934;DHT22;6026;48.784;9.198;2023-02-28T11:08:55;4.20;99.90
11934;DHT22;6026;48.784;9.198;2023-02-28T11:11:25;4.70;99.90
11934;DHT22;6026;48.784;9.198;2023-02-28T11:14:34;5.00;99.90
11934;DHT22;6026;48.784;9.198;2023-02-28T11:17:14;5.60;99.90
11934;DHT22;6026;48.784;9.198;2023-02-28T11:19:46;6.00;99.90
11934;DHT22;6026;48.784;9.198;2023-02-28T11:22:18;6.40;99.90
11934;DHT22;6026;48.784;9.198;2023-02-28T11:24:51;6.50;99.90
11934;DHT22;6026;48.784;9.198;2023-02-28T11:29:59;6.90;99.90
11934;DHT22;6026;48.784;9.198;2023-02-28T11:32:27;6.90;99.90
11934;DHT22;6026;48.784;9.198;2023-02-28T11:37:37;7.30;99.90
11934;DHT22;6026;48.784;9.198;2023-02-28T11:40:15;7.80;99.90
11934;DHT22;6026;48.784;9.198;2023-02-28T11:45:45;8.50;99.90
11934;DHT22;6026;48.784;9.198;2023-02-28T11:51:03;8.80;99.90
11934;DHT22;6026;48.784;9.198;2023-02-28T11:54:11;9.00;99.90
11934;DHT22;6026;48.784;9.198;2023-02-28T11:56:44;9.20;99.90
11934;DHT22;6026;48.784;9.198;2023-02-28T12:04:53;9.10;99.90
11934;DHT22;6026;48.784;9.198;2023-02-28T12:10:25;9.20;99.90
11934;DHT22;6026;48.784;9.198;2023-02-28T12:13:19;9.00;99.90
11934;DHT22;6026;48.784;9.198;2023-02-28T12:21:38;8.70;99.90
11934;DHT22;6026;48.784;9.198;2023-02-28T12:26:44;9.00;99.90
11934;DHT22;6026;48.784;9.198;2023-02-28T12:29:29;8.70;99.90
11934;DHT22;6026;48.784;9.198;2023-02-28T12:34:35;9.20;99.90
11934;DHT22;6026;48.784;9.198;2023-02-28T12:37:07;9.00;99.90
11934;DHT22;6026;48.784;9.198;2023-02-28T12:39:44;9.00;99.90
11934;DHT22;6026;48.784;9.198;2023-02-28T12:42:13;9.00;99.90
11934;DHT22;6026;48.784;9.198;2023-02-28T12:45:19;9.60;99.90
11934;DHT22;6026;48.784;9.198;2023-02-28T12:47:50;10.30;99.90
11934;DHT22;6026;48.784;9.198;2023-02-28T12:50:18;9.80;99.90
11934;DHT22;6026;48.784;9.198;2023-02-28T12:52:59;10.00;99.90
11934;DHT22;6026;48.784;9.198;2023-02-28T13:00:36;11.00;99.90
11934;DHT22;6026;48.784;9.198;2023-02-28T13:09:09;11.60;99.70
11934;DHT22;6026;48.784;9.198;2023-02-28T13:11:39;11.50;99.60
11934;DHT22;6026;48.784;9.198;2023-02-28T13:19:30;11.30;99.80
11934;DHT22;6026;48.784;9.198;2023-02-28T13:21:58;11.80;99.60
11934;DHT22;6026;48.784;9.198;2023-02-28T13:29:41;11.60;98.90
11934;DHT22;6026;48.784;9.198;2023-02-28T13:35:08;11.40;99.00
11934;DHT22;6026;48.784;9.198;2023-02-28T13:37:35;11.20;99.40
11934;DHT22;6026;48.784;9.198;2023-02-28T13:40:31;11.10;99.10
11934;DHT22;6026;48.784;9.198;2023-02-28T13:43:02;11.20;99.00
11934;DHT22;6026;48.784;9.198;2023-02-28T13:45:29;10.90;98.80
11934;DHT22;6026;48.784;9.198;2023-02-28T13:48:00;10.70;99.00
11934;DHT22;6026;48.784;9.198;2023-02-28T13:50:28;10.50;99.20
11934;DHT22;6026;48.784;9.198;2023-02-28T13:55:57;10.60;99.50
11934;DHT22;6026;48.784;9.198;2023-02-28T13:58:53;10.30;99.40
11934;DHT22;6026;48.784;9.198;2023-02-28T14:01:31;10.60;99.30
11934;DHT22;6026;48.784;9.198;2023-02-28T14:06:54;10.30;99.60
11934;DHT22;6026;48.784;9.198;2023-02-28T14:11:56;10.60;99.60
11934;DHT22;6026;48.784;9.198;2023-02-28T14:17:08;10.80;99.00
11934;DHT22;6026;48.784;9.198;2023-02-28T14:19:38;10.60;99.30
11934;DHT22;6026;48.784;9.198;2023-02-28T14:25:18;10.90;99.30
11934;DHT22;6026;48.784;9.198;2023-02-28T14:27:54;11.00;98.70
11934;DHT22;6026;48.784;9.198;2023-02-28T14:33:43;10.40;99.30
11934;DHT22;6026;48.784;9.198;2023-02-28T14:38:52;10.90;98.70
11934;DHT22;6026;48.784;9.198;2023-02-28T14:41:40;11.00;98.70
11934;DHT22;6026;48.784;9.198;2023-02-28T14:46:44;10.20;98.90
11934;DHT22;6026;48.784;9.198;2023-02-28T14:49:30;10.40;98.80
11934;DHT22;6026;48.784;9.198;2023-02-28T14:54:31;9.90;99.60
11934;DHT22;6026;48.784;9.198;2023-02-28T14:56:57;10.00;99.30
11934;DHT22;6026;48.784;9.198;2023-02-28T14:59:32;9.70;99.90
11934;DHT22;6026;48.784;9.198;2023-02-28T15:04:40;9.50;99.90
11934;DHT22;6026;48.784;9.198;2023-02-28T15:07:09;9.40;99.90
11934;DHT22;6026;48.784;9.198;2023-02-28T15:09:34;9.50;99.90
11934;DHT22;6026;48.784;9.198;2023-02-28T15:12:00;9.70;99.90
11934;DHT22;6026;48.784;9.198;2023-02-28T15:14:27;9.70;99.90
11934;DHT22;6026;48.784;9.198;2023-02-28T15:17:00;9.70;99.90
11934;DHT22;6026;48.784;9.198;2023-02-28T15:19:29;9.40;99.90
11934;DHT22;6026;48.784;9.198;2023-02-28T15:22:11;9.20;99.90
11934;DHT22;6026;48.784;9.198;2023-02-28T15:24:46;9.10;99.90
11934;DHT22;6026;48.784;9.198;2023-02-28T15:29:51;8.80;99.90
11934;DHT22;6026;48.784;9.198;2023-02-28T15:32:29;8.70;99.90
11934;DHT22;6026;48.784;9.198;2023-02-28T15:34:55;8.70;99.90
11934;DHT22;6026;48.784;9.198;2023-02-28T15:40:13;8.50;99.90
11934;DHT22;6026;48.784;9.198;2023-02-28T15:42:40;8.40;99.90
11934;DHT22;6026;48.784;9.198;2023-02-28T15:45:27;7.90;99.90
11934;DHT22;6026;48.784;9.198;2023-02-28T15:47:53;7.70;99.90
11934;DHT22;6026;48.784;9.198;2023-02-28T15:50:18;7.60;99.90
11934;DHT22;6026;48.784;9.198;2023-02-28T15:52:45;7.40;99.90
11934;DHT22;6026;48.784;9.198;2023-02-28T15:57:44;7.40;99.90
11934;DHT22;6026;48.784;9.198;2023-02-28T16:00:18;7.20;99.90
11934;DHT22;6026;48.784;9.198;2023-02-28T16:02:43;7.20;99.90
11934;DHT22;6026;48.784;9.198;2023-02-28T16:07:42;6.90;99.90
11934;DHT22;6026;48.784;9.198;2023-02-28T16:10:10;6.70;99.90
11934;DHT22;6026;48.784;9.198;2023-02-28T16:12:38;6.50;99.90
11934;DHT22;6026;48.784;9.198;2023-02-28T16:15:25;6.40;99.90
11934;DHT22;6026;48.784;9.198;2023-02-28T16:17:53;6.10;99.90
11934;DHT22;6026;48.784;9.198;2023-02-28T16:20:22;6.10;99.90
11934;DHT22;6026;48.784;9.198;2023-02-28T16:22:49;6.00;99.90
11934;DHT22;6026;48.784;9.198;2023-02-28T16:25:23;5.70;99.90
11934;DHT22;6026;48.784;9.198;2023-02-28T16:27:52;5.60;99.90
11934;DHT22;6026;48.784;9.198;2023-02-28T16:30:27;5.60;99.90
11934;DHT22;6026;48.784;9.198;2023-02-28T16:32:55;5.40;99.90
11934;DHT22;6026;48.784;9.198;2023-02-28T16:35:21;5.30;99.90
11934;DHT22;6026;48.784;9.198;2023-02-28T16:37:47;5.30;99.90
11934;DHT22;6026;48.784;9.198;2023-02-28T16:40:21;5.30;99.90
11934;DHT22;6026;48.784;9.198;2023-02-28T16:42:51;5.10;99.90
11934;DHT22;6026;48.784;9.198;2023-02-28T16:45:18;5.00;99.90
11934;DHT22;6026;48.784;9.198;2023-02-28T16:47:45;5.00;99.90
11934;DHT22;6026;48.784;9.198;2023-02-28T16:50:22;4.90;99.90
11934;DHT22;6026;48.784;9.198;2023-02-28T16:52:48;4.80;99.90
11934;DHT22;6026;48.784;9.198;2023-02-28T16:55:15;4.70;99.90
11934;DHT22;6026;48.784;9.198;2023-02-28T16:57:41;4.70;99.90
11934;DHT22;6026;48.784;9.198;2023-02-28T17:00:10;4.60;99.90
11934;DHT22;6026;48.784;9.198;2023-02-28T17:02:36;4.50;99.90
11934;DHT22;6026;48.784;9.198;2023-02-28T17:05:02;4.40;99.90
11934;DHT22;6026;48.784;9.198;2023-02-28T17:07:28;4.40;99.90
11934;DHT22;6026;48.784;9.198;2023-02-28T17:09:53;4.30;99.90
11934;DHT22;6026;48.784;9.198;2023-02-28T17:12:19;4.20;99.90
11934;DHT22;6026;48.784;9.198;2023-02-28T17:14:44;4.10;99.90
11934;DHT22;6026;48.784;9.198;2023-02-28T17:17:18;4.10;99.90
11934;DHT22;6026;48.784;9.198;2023-02-28T17:19:43;4.10;99.90
11934;DHT22;6026;48.784;9.198;2023-02-28T17:22:10;4.00;99.90
11934;DHT22;6026;48.784;9.198;2023-02-28T17:24:35;4.10;99.90
11934;DHT22;6026;48.784;9.198;2023-02-28T17:27:02;3.90;99.90
11934;DHT22;6026;48.784;9.198;2023-02-28T17:29:27;3.80;99.90
11934;DHT22;6026;48.784;9.198;2023-02-28T17:31:53;3.70;99.90
11934;DHT22;6026;48.784;9.198;2023-02-28T17:34:19;3.80;99.90
11934;DHT22;6026;48.784;9.198;2023-02-28T17:36:46;3.70;99.90
11934;DHT22;6026;48.784;9.198;2023-02-28T17:39:13;3.60;99.90
11934;DHT22;6026;48.784;9.198;2023-02-28T17:41:42;3.60;99.90
11934;DHT22;6026;48.784;9.198;2023-02-28T17:44:08;3.50;99.90
11934;DHT22;6026;48.784;9.198;2023-02-28T17:46:35;3.40;99.90
11934;DHT22;6026;48.784;9.198;2023-02-28T17:49:01;3.40;99.90
11934;DHT22;6026;48.784;9.198;2023-02-28T17:51:26;3.40;99.90
11934;DHT22;6026;48.784;9.198;2023-02-28T17:53:52;3.40;99.90
11934;DHT22;6026;48.784;9.198;2023-02-28T17:56:22;3.40;99.90
11934;DHT22;6026;48.784;9.198;2023-02-28T17:58:49;3.40;99.90
11934;DHT22;6026;48.784;9.198;2023-02-28T18:01:14;3.30;99.90
11934;DHT22;6026;48.784;9.198;2023-02-28T18:03:40;3.20;99.90
11934;DHT22;6026;48.784;9.198;2023-02-28T18:06:06;3.20;99.90
11934;DHT22;6026;48.784;9.198;2023-02-28T18:08:32;3.20;99.90
11934;DHT22;6026;48.784;9.198;2023-02-28T18:11:00;3.10;99.90
11934;DHT22;6026;48.784;9.198;2023-02-28T18:13:26;3.10;99.90
11934;DHT22;6026;48.784;9.198;2023-02-28T18:15:53;3.00;99.90
11934;DHT22;6026;48.784;9.198;2023-02-28T18:18:19;3.00;99.90
11934;DHT22;6026;48.784;9.198;2023-02-28T18:20:44;2.90;99.90
11934;DHT22;6026;48.784;9.198;2023-02-28T18:23:10;2.90;99.90
11934;DHT22;6026;48.784;9.198;2023-02-28T18:25:36;2.80;99.90
11934;DHT22;6026;48.784;9.198;2023-02-28T18:28:03;2.80;99.90
11934;DHT22;6026;48.784;9.198;2023-02-28T18:30:35;2.80;99.90